Map

Track Data

SID SEASON NUMBER BASIN SUBBASIN NAME ISO_TIME NATURE LAT LON WMO_WIND WMO_PRES WMO_AGENCY TRACK_TYPE DIST2LAND LANDFALL IFLAG USA_AGENCY USA_ATCF_ID USA_LAT USA_LON USA_RECORD USA_STATUS USA_WIND USA_PRES USA_SSHS USA_R34_NE USA_R34_SE USA_R34_SW USA_R34_NW USA_R50_NE USA_R50_SE USA_R50_SW USA_R50_NW USA_R64_NE USA_R64_SE USA_R64_SW USA_R64_NW USA_POCI USA_ROCI USA_RMW USA_EYE TOKYO_LAT TOKYO_LON TOKYO_GRADE TOKYO_WIND TOKYO_PRES TOKYO_R50_DIR TOKYO_R50_LONG TOKYO_R50_SHORT TOKYO_R30_DIR TOKYO_R30_LONG TOKYO_R30_SHORT TOKYO_LAND CMA_LAT CMA_LON CMA_CAT CMA_WIND CMA_PRES HKO_LAT HKO_LON HKO_CAT HKO_WIND HKO_PRES NEWDELHI_LAT NEWDELHI_LON NEWDELHI_GRADE NEWDELHI_WIND NEWDELHI_PRES NEWDELHI_CI NEWDELHI_DP NEWDELHI_POCI REUNION_LAT REUNION_LON REUNION_TYPE REUNION_WIND REUNION_PRES REUNION_TNUM REUNION_CI REUNION_RMW REUNION_R34_NE REUNION_R34_SE REUNION_R34_SW REUNION_R34_NW REUNION_R50_NE REUNION_R50_SE REUNION_R50_SW REUNION_R50_NW REUNION_R64_NE REUNION_R64_SE REUNION_R64_SW REUNION_R64_NW BOM_LAT BOM_LON BOM_TYPE BOM_WIND BOM_PRES BOM_TNUM BOM_CI BOM_RMW BOM_R34_NE BOM_R34_SE BOM_R34_SW BOM_R34_NW BOM_R50_NE BOM_R50_SE BOM_R50_SW BOM_R50_NW BOM_R64_NE BOM_R64_SE BOM_R64_SW BOM_R64_NW BOM_ROCI BOM_POCI BOM_EYE BOM_POS_METHOD BOM_PRES_METHOD NADI_LAT NADI_LON NADI_CAT NADI_WIND NADI_PRES WELLINGTON_LAT WELLINGTON_LON WELLINGTON_WIND WELLINGTON_PRES DS824_LAT DS824_LON DS824_STAGE DS824_WIND DS824_PRES TD9636_LAT TD9636_LON TD9636_STAGE TD9636_WIND TD9636_PRES TD9635_LAT TD9635_LON TD9635_WIND TD9635_PRES TD9635_ROCI NEUMANN_LAT NEUMANN_LON NEUMANN_CLASS NEUMANN_WIND NEUMANN_PRES MLC_LAT MLC_LON MLC_CLASS MLC_WIND MLC_PRES USA_GUST BOM_GUST BOM_GUST_PER REUNION_GUST REUNION_GUST_PER USA_SEAHGT USA_SEARAD_NE USA_SEARAD_SE USA_SEARAD_SW USA_SEARAD_NW STORM_SPEED STORM_DIR
1944210N20090 1944 42 NI BB NOT_NAMED 1944-07-28 00:00:00 TS 20.0000 89.5000 main 183 183 _________O____ -1 20.0000 89.5000 TC 30 0 0
1944210N20090 1944 42 NI BB NOT_NAMED 1944-07-28 03:00:00 TS 20.0000 89.5000 main 183 183 _________PO___ -1 20.0000 89.5000 TC 30 20.0000 89.5000 1 0 0
1944210N20090 1944 42 NI BB NOT_NAMED 1944-07-28 06:00:00 TS 20.0019 89.4938 main 183 183 _________OP___ -1 20.0000 89.5000 TC 30 20.0047 89.4844 1 0 0
1944210N20090 1944 42 NI BB NOT_NAMED 1944-07-28 09:00:00 TS 20.0032 89.4893 main 183 183 _________PP___ -1 20.0000 89.5000 TC 30 20.0076 89.4750 1 0 0
1944210N20090 1944 42 NI BB NOT_NAMED 1944-07-28 12:00:00 TS 20.0033 89.4891 main 183 183 _________OP___ -1 20.0000 89.5000 TC 30 20.0066 89.4782 1 0 0
1944210N20090 1944 42 NI BB NOT_NAMED 1944-07-28 15:00:00 TS 20.0000 89.5000 main 183 183 _________PO___ -1 20.0000 89.5000 TC 30 20.0000 89.5000 1 0 104
1944210N20090 1944 42 NI BB NOT_NAMED 1944-07-28 18:00:00 TS 19.9938 89.5203 main 183 183 _________OP___ -1 20.0000 89.5000 TC 30 19.9877 89.5405 1 1 106
1944210N20090 1944 42 NI BB NOT_NAMED 1944-07-28 21:00:00 TS 19.9849 89.5524 main 186 183 _________PP___ -1 19.9925 89.5300 TC 30 19.9773 89.5748 1 0 0
1944210N20090 1944 42 NI BB NOT_NAMED 1944-07-29 00:00:00 TS 19.9891 89.5359 main 183 181 _________OP___ -1 20.0000 89.5000 TC 30 19.9782 89.5717 1 1 284
1944210N20090 1944 42 NI BB NOT_NAMED 1944-07-29 03:00:00 TS 20.0175 89.4225 main 181 168 _________PO___ -1 20.0350 89.3450 TC 30 20.0000 89.5000 1 3 286
1944210N20090 1944 42 NI BB NOT_NAMED 1944-07-29 06:00:00 TS 20.0810 89.2009 main 168 156 _________OP___ -1 20.1000 89.1000 TC 30 20.0619 89.3018 1 5 288
1944210N20090 1944 42 NI BB NOT_NAMED 1944-07-29 09:00:00 TS 20.1716 88.9115 main 156 145 _________PP___ -1 20.2001 88.7851 TC 30 20.1430 89.0379 1 6 289
1944210N20090 1944 42 NI BB NOT_NAMED 1944-07-29 12:00:00 TS 20.2638 88.6275 main 145 145 _________OP___ -1 20.3000 88.5000 TC 30 20.2276 88.7550 1 5 290
1944210N20090 1944 42 NI BB NOT_NAMED 1944-07-29 15:00:00 TS 20.3324 88.4387 main 145 134 _________PO___ -1 20.3649 88.3774 TC 31 20.3000 88.5000 1 3 291
1944210N20090 1944 42 NI BB NOT_NAMED 1944-07-29 18:00:00 TS 20.3674 88.3397 main 134 129 _________OP___ -1 20.4000 88.3000 TC 32 20.3348 88.3794 1 2 284
1944210N20090 1944 42 NI BB NOT_NAMED 1944-07-29 21:00:00 TS 20.3783 88.2373 main 129 119 _________PP___ -1 20.3999 88.1874 TC 33 20.3567 88.2872 1 2 275
1944210N20090 1944 42 NI BB NOT_NAMED 1944-07-30 00:00:00 TS 20.3877 88.0882 main 119 99 _________OP___ -1 20.4000 88.0000 TC 34 20.3753 88.1763 1 4 277
1944210N20090 1944 42 NI BB NOT_NAMED 1944-07-30 03:00:00 TS 20.4213 87.8438 main 89 56 _________PO___ -1 20.4425 87.6875 TC 33 20.4000 88.0000 2 6 278
1944210N20090 1944 42 NI BB NOT_NAMED 1944-07-30 06:00:00 TS 20.4654 87.5004 main 56 23 _________OP___ -1 20.5000 87.3000 TC 32 20.4309 87.7008 2 7 277
1944210N20090 1944 42 NI BB NOT_NAMED 1944-07-30 09:00:00 TS 20.5064 87.1198 main 23 0 _________PP___ -1 20.5425 86.9074 TC 31 20.4703 87.3322 2 7 277
1944210N20090 1944 42 NI BB NOT_NAMED 1944-07-30 12:00:00 TS 20.5623 86.7113 main 0 0 _________OP___ -1 20.6000 86.5000 TC 30 20.5245 86.9225 2 8 280
1944210N20090 1944 42 NI BB NOT_NAMED 1944-07-30 15:00:00 TS 20.6425 86.3000 main 0 0 _________PO___ -1 20.6849 86.0999 TC 30 20.6000 86.5000 1 8 284
1944210N20090 1944 42 NI BB NOT_NAMED 1944-07-30 18:00:00 TS 20.7450 85.9297 main 0 0 _________OP___ -1 20.8000 85.7000 TC 30 20.6900 86.1593 1 7 288
1944210N20090 1944 42 NI BB NOT_NAMED 1944-07-30 21:00:00 TS 20.8688 85.5743 main 0 0 _________PP___ -1 20.9345 85.3447 TC 30 20.8030 85.8039 1 8 291
1944210N20090 1944 42 NI BB NOT_NAMED 1944-07-31 00:00:00 TS 21.0198 85.1483 main 0 0 _________OP___ -1 21.1000 84.9000 TC 30 20.9396 85.3965 1 10 289
1944210N20090 1944 42 NI BB NOT_NAMED 1944-07-31 03:00:00 TS 21.1963 84.5762 main 0 0 _________PO___ -1 21.2926 84.2525 TC 30 21.1000 84.9000 1 12 287
1944210N20090 1944 42 NI BB NOT_NAMED 1944-07-31 06:00:00 TS 21.3899 83.8723 main 0 0 _________OP___ -1 21.5000 83.5000 TC 30 21.2798 84.2446 1 14 286
1944210N20090 1944 42 NI BB NOT_NAMED 1944-07-31 09:00:00 TS 21.5898 83.1191 main 0 0 _________PP___ -1 21.7000 82.7349 TC 30 21.4795 83.5032 1 15 286
1944210N20090 1944 42 NI BB NOT_NAMED 1944-07-31 12:00:00 TS 21.7946 82.3675 main 0 0 _________OP___ -1 21.9000 82.0000 TC 30 21.6891 82.7351 1 14 287
1944210N20090 1944 42 NI BB NOT_NAMED 1944-07-31 15:00:00 TS 21.9998 81.6849 main 0 0 _________PO___ -1 22.0996 81.3698 TC 30 21.9000 82.0000 1 12 289
1944210N20090 1944 42 NI BB NOT_NAMED 1944-07-31 18:00:00 TS 22.1961 81.1286 main 0 0 _________OP___ -1 22.3000 80.8000 TC 30 22.0922 81.4571 1 11 292
1944210N20090 1944 42 NI BB NOT_NAMED 1944-07-31 21:00:00 TS 22.3890 80.6307 main 0 0 _________PP___ -1 22.4912 80.3168 TC 30 22.2868 80.9446 1 11 292
1944210N20090 1944 42 NI BB NOT_NAMED 1944-08-01 00:00:00 TS 22.5942 80.0424 main 0 0 _________OP___ -1 22.7000 79.7000 TC 30 22.4883 80.3849 1 14 288
1944210N20090 1944 42 NI BB NOT_NAMED 1944-08-01 03:00:00 TS 22.8253 79.2126 main 0 0 _________PO___ -1 22.9505 78.7252 TC 30 22.7000 79.7000 1 18 284
1944210N20090 1944 42 NI BB NOT_NAMED 1944-08-01 06:00:00 TS 23.0410 78.1525 main 0 0 _________OP___ -1 23.2000 77.6000 TC 30 22.8820 78.7050 1 20 281
1944210N20090 1944 42 NI AS NOT_NAMED 1944-08-01 09:00:00 TS 23.2226 77.0330 main 0 0 _________PP___ -1 23.3705 76.4743 TC 30 23.0746 77.5917 1 20 282
1944210N20090 1944 42 NI AS NOT_NAMED 1944-08-01 12:00:00 TS 23.4520 75.9913 main 0 0 _________OP___ -1 23.6000 75.5000 TC 30 23.3040 76.4827 1 18 289
1944210N20090 1944 42 NI AS NOT_NAMED 1944-08-01 15:00:00 TS 23.8019 75.1873 main 0 0 _________PO___ -1 24.0037 74.8746 TC 30 23.6000 75.5000 1 15 303
1944210N20090 1944 42 NI AS NOT_NAMED 1944-08-01 18:00:00 TS 24.2671 74.6251 main 0 0 _________OP___ -1 24.5000 74.4000 TC 30 24.0343 74.8503 1 14 315
1944210N20090 1944 42 NI AS NOT_NAMED 1944-08-01 21:00:00 TS 24.7823 74.1094 main 0 0 _________PP___ -1 25.0293 73.8874 TC 30 24.5354 74.3314 1 14 316
1944210N20090 1944 42 NI AS NOT_NAMED 1944-08-02 00:00:00 TS 25.2720 73.5735 main 0 0 _________OP___ -1 25.5000 73.3000 TC 30 25.0441 73.8469 1 14 309
1944210N20090 1944 42 NI AS NOT_NAMED 1944-08-02 03:00:00 TS 25.6437 72.9221 main 0 0 _________PO___ -1 25.7875 72.5443 TC 30 25.5000 73.3000 1 15 296
1944210N20090 1944 42 NI AS NOT_NAMED 1944-08-02 06:00:00 TS 25.9115 72.1303 main 0 0 _________OP___ -1 26.0000 71.7000 TC 30 25.8230 72.5606 1 16 290
1944210N20090 1944 42 NI AS NOT_NAMED 1944-08-02 09:00:00 TS 26.1698 71.3013 main 0 0 _________PP___ -1 26.2571 70.8573 TC 30 26.0825 71.7453 1 16 288
1944210N20090 1944 42 NI AS NOT_NAMED 1944-08-02 12:00:00 TS 26.4003 70.4412 main 0 0 _________OP___ -1 26.5000 70.0000 TC 30 26.3007 70.8825 1 16 286
1944210N20090 1944 42 NI AS NOT_NAMED 1944-08-02 15:00:00 TS 26.6034 69.5785 main 0 0 _________PO___ -1 26.7069 69.1570 TC 30 26.5000 70.0000 1 15 284
1944210N20090 1944 42 NI AS NOT_NAMED 1944-08-02 18:00:00 TS 26.7854 68.7688 main 0 0 _________OP___ -1 26.9000 68.3000 TC 30 26.6994 69.1204 1 15 284
1944210N20090 1944 42 NI AS NOT_NAMED 1944-08-02 21:00:00 TS 26.9800 67.9117 main 0 0 _________PP___ -1 27.0988 67.4108 TC 30 26.9008 68.2457 1 16 284
1944210N20090 1944 42 NI AS NOT_NAMED 1944-08-03 00:00:00 TS 27.1679 67.0820 main 0 0 _________OP___ -1 27.3000 66.5000 TC 30 27.1018 67.3731 1 13 284
1944210N20090 1944 42 NI AS NOT_NAMED 1944-08-03 03:00:00 NR 27.3000 66.5000 main 0 __________O___ -1 TC 27.3000 66.5000 1 11 284

About IBTrACS Database

This database is a web-friendly format of International Best Track Archive for Climate Stewardship (IBTrACS), a global best track data archive curated by NOAA dating back to 1842.

Updated: 2021-10-25